sensor_id;sensor_type;location;lat;lon;timestamp;temperature;humidity
20337;DHT22;10326;53.660;10.200;2023-10-13T07:55:08;19.00;96.90
20337;DHT22;10326;53.660;10.200;2023-10-13T08:19:47;19.20;97.30
20337;DHT22;10326;53.660;10.200;2023-10-13T08:22:15;19.20;97.00
20337;DHT22;10326;53.660;10.200;2023-10-13T09:12:54;19.40;97.30
20337;DHT22;10326;53.660;10.200;2023-10-13T09:16:25;19.40;97.60
20337;DHT22;10326;53.660;10.200;2023-10-13T09:19:10;19.40;97.50
20337;DHT22;10326;53.660;10.200;2023-10-13T09:22:28;19.40;97.30
20337;DHT22;10326;53.660;10.200;2023-10-13T09:31:43;19.40;97.30
20337;DHT22;10326;53.660;10.200;2023-10-13T09:34:21;19.40;97.50
20337;DHT22;10326;53.660;10.200;2023-10-13T09:37:03;19.40;97.50
20337;DHT22;10326;53.660;10.200;2023-10-13T09:39:56;19.40;97.50
20337;DHT22;10326;53.660;10.200;2023-10-13T09:42:37;19.40;97.50
20337;DHT22;10326;53.660;10.200;2023-10-13T09:46:09;19.40;97.60
20337;DHT22;10326;53.660;10.200;2023-10-13T10:00:54;19.60;97.60
20337;DHT22;10326;53.660;10.200;2023-10-13T10:03:26;19.60;97.60
20337;DHT22;10326;53.660;10.200;2023-10-13T10:24:12;19.80;97.20
20337;DHT22;10326;53.660;10.200;2023-10-13T10:26:53;19.70;97.50
20337;DHT22;10326;53.660;10.200;2023-10-13T10:29:24;19.70;97.30
20337;DHT22;10326;53.660;10.200;2023-10-13T10:31:52;19.70;97.30
20337;DHT22;10326;53.660;10.200;2023-10-13T10:43:50;19.70;97.40
20337;DHT22;10326;53.660;10.200;2023-10-13T10:46:26;19.70;97.70
20337;DHT22;10326;53.660;10.200;2023-10-13T10:49:05;19.80;97.60
20337;DHT22;10326;53.660;10.200;2023-10-13T10:56:35;19.80;97.80
20337;DHT22;10326;53.660;10.200;2023-10-13T11:03:26;19.90;97.80
20337;DHT22;10326;53.660;10.200;2023-10-13T11:06:00;20.00;97.70
20337;DHT22;10326;53.660;10.200;2023-10-13T11:22:38;20.10;98.00
20337;DHT22;10326;53.660;10.200;2023-10-13T11:26:06;20.20;98.00
20337;DHT22;10326;53.660;10.200;2023-10-13T11:32:26;20.20;98.00
20337;DHT22;10326;53.660;10.200;2023-10-13T11:35:17;20.30;97.90
20337;DHT22;10326;53.660;10.200;2023-10-13T11:38:36;20.30;98.10
20337;DHT22;10326;53.660;10.200;2023-10-13T11:41:16;20.40;98.30
20337;DHT22;10326;53.660;10.200;2023-10-13T11:46:27;20.40;98.20
20337;DHT22;10326;53.660;10.200;2023-10-13T11:49:14;20.50;98.10
20337;DHT22;10326;53.660;10.200;2023-10-13T11:51:48;20.60;98.20
20337;DHT22;10326;53.660;10.200;2023-10-13T11:54:22;20.60;98.20
20337;DHT22;10326;53.660;10.200;2023-10-13T11:57:00;20.70;98.30
20337;DHT22;10326;53.660;10.200;2023-10-13T11:59:29;20.70;98.30
20337;DHT22;10326;53.660;10.200;2023-10-13T12:01:56;20.70;98.30
20337;DHT22;10326;53.660;10.200;2023-10-13T12:04:42;20.80;98.30
20337;DHT22;10326;53.660;10.200;2023-10-13T12:07:17;20.80;98.20
20337;DHT22;10326;53.660;10.200;2023-10-13T12:09:50;20.90;98.20
20337;DHT22;10326;53.660;10.200;2023-10-13T12:12:32;20.90;98.20
20337;DHT22;10326;53.660;10.200;2023-10-13T12:15:06;21.00;98.20
20337;DHT22;10326;53.660;10.200;2023-10-13T12:17:51;21.00;98.20
20337;DHT22;10326;53.660;10.200;2023-10-13T12:20:18;21.10;98.30
20337;DHT22;10326;53.660;10.200;2023-10-13T12:22:59;21.10;98.20
20337;DHT22;10326;53.660;10.200;2023-10-13T12:25:40;21.20;98.30
20337;DHT22;10326;53.660;10.200;2023-10-13T12:28:25;21.20;98.20
20337;DHT22;10326;53.660;10.200;2023-10-13T12:31:02;21.30;98.20
20337;DHT22;10326;53.660;10.200;2023-10-13T12:33:32;21.30;98.10
20337;DHT22;10326;53.660;10.200;2023-10-13T12:36:06;21.30;98.10
20337;DHT22;10326;53.660;10.200;2023-10-13T12:38:35;21.40;98.00
20337;DHT22;10326;53.660;10.200;2023-10-13T12:41:39;21.40;98.00
20337;DHT22;10326;53.660;10.200;2023-10-13T12:44:24;21.40;98.20
20337;DHT22;10326;53.660;10.200;2023-10-13T12:47:09;21.50;97.90
20337;DHT22;10326;53.660;10.200;2023-10-13T12:49:54;21.50;97.80
20337;DHT22;10326;53.660;10.200;2023-10-13T12:52:43;21.50;97.80
20337;DHT22;10326;53.660;10.200;2023-10-13T12:55:18;21.60;97.70
20337;DHT22;10326;53.660;10.200;2023-10-13T12:57:51;21.60;97.60
20337;DHT22;10326;53.660;10.200;2023-10-13T13:00:19;21.60;97.60
20337;DHT22;10326;53.660;10.200;2023-10-13T13:03:02;21.70;97.60
20337;DHT22;10326;53.660;10.200;2023-10-13T13:05:39;21.70;97.50
20337;DHT22;10326;53.660;10.200;2023-10-13T13:08:11;21.70;97.40
20337;DHT22;10326;53.660;10.200;2023-10-13T13:10:47;21.80;97.40
20337;DHT22;10326;53.660;10.200;2023-10-13T13:13:16;21.80;97.40
20337;DHT22;10326;53.660;10.200;2023-10-13T13:15:50;21.80;97.30
20337;DHT22;10326;53.660;10.200;2023-10-13T13:18:17;21.80;97.30
20337;DHT22;10326;53.660;10.200;2023-10-13T13:20:45;21.90;97.30
20337;DHT22;10326;53.660;10.200;2023-10-13T13:23:19;21.90;97.30
20337;DHT22;10326;53.660;10.200;2023-10-13T13:25:47;21.90;97.30
20337;DHT22;10326;53.660;10.200;2023-10-13T13:28:16;21.90;97.30
20337;DHT22;10326;53.660;10.200;2023-10-13T13:30:45;22.00;97.30
20337;DHT22;10326;53.660;10.200;2023-10-13T13:33:16;22.00;97.20
20337;DHT22;10326;53.660;10.200;2023-10-13T13:35:53;22.10;97.20
20337;DHT22;10326;53.660;10.200;2023-10-13T13:38:21;22.10;97.20
20337;DHT22;10326;53.660;10.200;2023-10-13T13:40:54;22.10;97.10
20337;DHT22;10326;53.660;10.200;2023-10-13T13:43:26;22.10;97.10
20337;DHT22;10326;53.660;10.200;2023-10-13T13:46:04;22.10;97.00
20337;DHT22;10326;53.660;10.200;2023-10-13T13:48:35;22.10;97.10
20337;DHT22;10326;53.660;10.200;2023-10-13T13:51:04;22.20;97.10
20337;DHT22;10326;53.660;10.200;2023-10-13T13:53:38;22.20;97.10
20337;DHT22;10326;53.660;10.200;2023-10-13T13:56:10;22.30;97.10
20337;DHT22;10326;53.660;10.200;2023-10-13T13:58:43;22.30;97.00
20337;DHT22;10326;53.660;10.200;2023-10-13T14:01:10;22.30;97.00
20337;DHT22;10326;53.660;10.200;2023-10-13T14:03:42;22.30;96.90
20337;DHT22;10326;53.660;10.200;2023-10-13T14:06:18;22.40;96.90
20337;DHT22;10326;53.660;10.200;2023-10-13T14:08:51;22.40;96.80
20337;DHT22;10326;53.660;10.200;2023-10-13T14:11:22;22.40;96.80
20337;DHT22;10326;53.660;10.200;2023-10-13T14:14:06;22.40;96.70
20337;DHT22;10326;53.660;10.200;2023-10-13T14:16:39;22.40;96.60
20337;DHT22;10326;53.660;10.200;2023-10-13T14:19:10;22.40;96.60
20337;DHT22;10326;53.660;10.200;2023-10-13T14:21:38;22.40;96.60
20337;DHT22;10326;53.660;10.200;2023-10-13T14:24:05;22.40;96.50
20337;DHT22;10326;53.660;10.200;2023-10-13T14:26:40;22.40;96.30
20337;DHT22;10326;53.660;10.200;2023-10-13T14:29:12;22.40;96.20
20337;DHT22;10326;53.660;10.200;2023-10-13T14:31:52;22.40;96.20
20337;DHT22;10326;53.660;10.200;2023-10-13T14:34:20;22.40;96.10
20337;DHT22;10326;53.660;10.200;2023-10-13T14:36:49;22.40;96.10
20337;DHT22;10326;53.660;10.200;2023-10-13T14:39:18;22.30;96.10
20337;DHT22;10326;53.660;10.200;2023-10-13T14:41:50;22.40;96.10
20337;DHT22;10326;53.660;10.200;2023-10-13T14:44:19;22.40;96.10
20337;DHT22;10326;53.660;10.200;2023-10-13T14:46:51;22.40;96.00
20337;DHT22;10326;53.660;10.200;2023-10-13T14:49:20;22.40;96.00
20337;DHT22;10326;53.660;10.200;2023-10-13T14:51:47;22.30;95.90
20337;DHT22;10326;53.660;10.200;2023-10-13T14:54:15;22.30;95.90
20337;DHT22;10326;53.660;10.200;2023-10-13T14:56:42;22.30;96.00
20337;DHT22;10326;53.660;10.200;2023-10-13T14:59:10;22.30;96.00
20337;DHT22;10326;53.660;10.200;2023-10-13T15:01:44;22.30;96.00
20337;DHT22;10326;53.660;10.200;2023-10-13T15:04:12;22.30;96.00
20337;DHT22;10326;53.660;10.200;2023-10-13T15:06:40;22.40;96.00
20337;DHT22;10326;53.660;10.200;2023-10-13T15:09:09;22.30;96.00
20337;DHT22;10326;53.660;10.200;2023-10-13T15:11:42;22.40;96.00
20337;DHT22;10326;53.660;10.200;2023-10-13T15:14:11;22.40;95.80
20337;DHT22;10326;53.660;10.200;2023-10-13T15:16:39;22.40;95.90
20337;DHT22;10326;53.660;10.200;2023-10-13T15:19:10;22.30;95.80
20337;DHT22;10326;53.660;10.200;2023-10-13T15:21:38;22.30;95.70
20337;DHT22;10326;53.660;10.200;2023-10-13T15:24:07;22.30;95.70
20337;DHT22;10326;53.660;10.200;2023-10-13T15:26:40;22.30;95.70
20337;DHT22;10326;53.660;10.200;2023-10-13T15:29:16;22.30;95.70
20337;DHT22;10326;53.660;10.200;2023-10-13T15:31:45;22.30;95.50
20337;DHT22;10326;53.660;10.200;2023-10-13T15:38:27;22.30;95.30
20337;DHT22;10326;53.660;10.200;2023-10-13T15:40:57;22.40;95.30
20337;DHT22;10326;53.660;10.200;2023-10-13T15:43:24;22.40;95.30
20337;DHT22;10326;53.660;10.200;2023-10-13T15:45:55;22.30;95.30
20337;DHT22;10326;53.660;10.200;2023-10-13T15:48:34;22.40;95.20
20337;DHT22;10326;53.660;10.200;2023-10-13T15:51:06;22.40;95.20
20337;DHT22;10326;53.660;10.200;2023-10-13T15:53:39;22.40;95.10
20337;DHT22;10326;53.660;10.200;2023-10-13T15:56:19;22.40;95.10
20337;DHT22;10326;53.660;10.200;2023-10-13T15:58:51;22.40;94.80
20337;DHT22;10326;53.660;10.200;2023-10-13T16:01:47;22.40;94.90
20337;DHT22;10326;53.660;10.200;2023-10-13T16:04:23;22.40;94.70
20337;DHT22;10326;53.660;10.200;2023-10-13T16:06:50;22.50;94.80
20337;DHT22;10326;53.660;10.200;2023-10-13T16:09:22;22.50;94.80
20337;DHT22;10326;53.660;10.200;2023-10-13T16:11:50;22.50;94.70
20337;DHT22;10326;53.660;10.200;2023-10-13T16:14:18;22.50;94.80
20337;DHT22;10326;53.660;10.200;2023-10-13T16:16:50;22.50;94.70
20337;DHT22;10326;53.660;10.200;2023-10-13T16:19:20;22.50;94.60
20337;DHT22;10326;53.660;10.200;2023-10-13T16:21:49;22.60;94.60
20337;DHT22;10326;53.660;10.200;2023-10-13T16:24:17;22.60;94.50
20337;DHT22;10326;53.660;10.200;2023-10-13T16:26:48;22.60;94.50
20337;DHT22;10326;53.660;10.200;2023-10-13T16:29:18;22.60;94.30
20337;DHT22;10326;53.660;10.200;2023-10-13T16:32:32;22.60;94.30
20337;DHT22;10326;53.660;10.200;2023-10-13T16:34:42;22.60;94.30
20337;DHT22;10326;53.660;10.200;2023-10-13T16:37:16;22.70;94.40
20337;DHT22;10326;53.660;10.200;2023-10-13T16:40:22;22.70;94.30
20337;DHT22;10326;53.660;10.200;2023-10-13T16:42:52;22.70;94.20
20337;DHT22;10326;53.660;10.200;2023-10-13T16:45:20;22.70;94.20
20337;DHT22;10326;53.660;10.200;2023-10-13T16:47:49;22.70;94.20
20337;DHT22;10326;53.660;10.200;2023-10-13T16:50:23;22.70;94.20
20337;DHT22;10326;53.660;10.200;2023-10-13T16:53:00;22.70;94.20
20337;DHT22;10326;53.660;10.200;2023-10-13T16:55:34;22.70;94.30
20337;DHT22;10326;53.660;10.200;2023-10-13T16:58:13;22.60;94.20
20337;DHT22;10326;53.660;10.200;2023-10-13T17:00:45;22.60;94.30
20337;DHT22;10326;53.660;10.200;2023-10-13T17:03:39;22.60;94.40
20337;DHT22;10326;53.660;10.200;2023-10-13T17:06:19;22.50;94.40
20337;DHT22;10326;53.660;10.200;2023-10-13T17:08:51;22.40;94.50
20337;DHT22;10326;53.660;10.200;2023-10-13T17:11:21;22.40;94.50
20337;DHT22;10326;53.660;10.200;2023-10-13T17:13:52;22.30;94.60
20337;DHT22;10326;53.660;10.200;2023-10-13T17:16:24;22.20;94.70
20337;DHT22;10326;53.660;10.200;2023-10-13T17:18:58;22.20;94.70
20337;DHT22;10326;53.660;10.200;2023-10-13T17:21:28;22.10;94.80
20337;DHT22;10326;53.660;10.200;2023-10-13T17:23:58;22.00;94.90
20337;DHT22;10326;53.660;10.200;2023-10-13T17:26:27;21.90;95.00
20337;DHT22;10326;53.660;10.200;2023-10-13T17:28:58;21.90;95.10
20337;DHT22;10326;53.660;10.200;2023-10-13T17:31:29;21.80;95.20
20337;DHT22;10326;53.660;10.200;2023-10-13T17:33:58;21.80;95.20
20337;DHT22;10326;53.660;10.200;2023-10-13T17:36:29;21.70;95.20
20337;DHT22;10326;53.660;10.200;2023-10-13T17:38:57;21.70;95.30
20337;DHT22;10326;53.660;10.200;2023-10-13T17:41:28;21.60;95.30
20337;DHT22;10326;53.660;10.200;2023-10-13T17:43:59;21.60;95.30
20337;DHT22;10326;53.660;10.200;2023-10-13T17:46:27;21.60;95.40
20337;DHT22;10326;53.660;10.200;2023-10-13T17:48:55;21.60;95.40
20337;DHT22;10326;53.660;10.200;2023-10-13T17:51:22;21.50;95.40
20337;DHT22;10326;53.660;10.200;2023-10-13T17:53:50;21.50;95.40
20337;DHT22;10326;53.660;10.200;2023-10-13T17:56:27;21.50;95.40
20337;DHT22;10326;53.660;10.200;2023-10-13T17:59:02;21.50;95.50
20337;DHT22;10326;53.660;10.200;2023-10-13T18:01:38;21.50;95.40
20337;DHT22;10326;53.660;10.200;2023-10-13T18:04:40;21.40;95.40
20337;DHT22;10326;53.660;10.200;2023-10-13T18:07:08;21.50;95.30
20337;DHT22;10326;53.660;10.200;2023-10-13T18:09:41;21.50;95.30
20337;DHT22;10326;53.660;10.200;2023-10-13T18:12:27;21.50;95.30
20337;DHT22;10326;53.660;10.200;2023-10-13T18:14:57;21.50;95.20
20337;DHT22;10326;53.660;10.200;2023-10-13T18:17:35;21.50;95.10
20337;DHT22;10326;53.660;10.200;2023-10-13T18:20:06;21.50;95.10
20337;DHT22;10326;53.660;10.200;2023-10-13T18:22:46;21.50;95.00
20337;DHT22;10326;53.660;10.200;2023-10-13T18:25:15;21.50;94.90
20337;DHT22;10326;53.660;10.200;2023-10-13T18:28:27;21.50;94.90
20337;DHT22;10326;53.660;10.200;2023-10-13T18:34:26;21.50;94.60
20337;DHT22;10326;53.660;10.200;2023-10-13T18:36:55;21.60;94.50
20337;DHT22;10326;53.660;10.200;2023-10-13T18:39:37;21.60;94.50
20337;DHT22;10326;53.660;10.200;2023-10-13T18:42:06;21.60;94.50
20337;DHT22;10326;53.660;10.200;2023-10-13T18:44:36;21.60;94.50
20337;DHT22;10326;53.660;10.200;2023-10-13T18:47:10;21.60;94.50
20337;DHT22;10326;53.660;10.200;2023-10-13T18:49:39;21.60;94.70
20337;DHT22;10326;53.660;10.200;2023-10-13T18:52:08;21.70;94.40
20337;DHT22;10326;53.660;10.200;2023-10-13T18:54:35;21.70;94.40
20337;DHT22;10326;53.660;10.200;2023-10-13T18:57:04;21.70;94.40
20337;DHT22;10326;53.660;10.200;2023-10-13T18:59:36;21.70;94.40
20337;DHT22;10326;53.660;10.200;2023-10-13T19:02:04;21.70;94.30
20337;DHT22;10326;53.660;10.200;2023-10-13T19:04:36;21.70;94.30
20337;DHT22;10326;53.660;10.200;2023-10-13T19:07:07;21.70;94.30
20337;DHT22;10326;53.660;10.200;2023-10-13T19:09:36;21.80;94.30
20337;DHT22;10326;53.660;10.200;2023-10-13T19:12:05;21.80;94.30
20337;DHT22;10326;53.660;10.200;2023-10-13T19:14:34;21.80;94.30
20337;DHT22;10326;53.660;10.200;2023-10-13T19:17:03;21.80;94.20
20337;DHT22;10326;53.660;10.200;2023-10-13T19:19:30;21.80;94.20
20337;DHT22;10326;53.660;10.200;2023-10-13T19:21:58;21.80;94.20
20337;DHT22;10326;53.660;10.200;2023-10-13T19:24:27;21.80;94.20
20337;DHT22;10326;53.660;10.200;2023-10-13T19:26:55;21.80;94.20
20337;DHT22;10326;53.660;10.200;2023-10-13T19:29:23;21.80;94.20
20337;DHT22;10326;53.660;10.200;2023-10-13T19:31:51;21.80;94.20
20337;DHT22;10326;53.660;10.200;2023-10-13T19:34:19;21.80;94.20
20337;DHT22;10326;53.660;10.200;2023-10-13T19:36:54;21.70;94.20
20337;DHT22;10326;53.660;10.200;2023-10-13T19:39:30;21.80;94.20
20337;DHT22;10326;53.660;10.200;2023-10-13T19:42:06;21.80;94.20
20337;DHT22;10326;53.660;10.200;2023-10-13T19:44:35;21.80;94.20
20337;DHT22;10326;53.660;10.200;2023-10-13T19:47:13;21.80;94.20
20337;DHT22;10326;53.660;10.200;2023-10-13T19:49:41;21.80;94.20
20337;DHT22;10326;53.660;10.200;2023-10-13T19:52:10;21.80;94.20
20337;DHT22;10326;53.660;10.200;2023-10-13T19:54:44;21.80;94.20
20337;DHT22;10326;53.660;10.200;2023-10-13T19:57:11;21.80;94.20
20337;DHT22;10326;53.660;10.200;2023-10-13T19:59:40;21.80;94.20
20337;DHT22;10326;53.660;10.200;2023-10-13T20:02:07;21.80;94.20
20337;DHT22;10326;53.660;10.200;2023-10-13T20:04:36;21.80;94.20
20337;DHT22;10326;53.660;10.200;2023-10-13T20:07:06;21.80;94.10
20337;DHT22;10326;53.660;10.200;2023-10-13T20:09:33;21.80;94.10
20337;DHT22;10326;53.660;10.200;2023-10-13T20:12:02;21.80;94.00
20337;DHT22;10326;53.660;10.200;2023-10-13T20:14:29;21.80;94.00
20337;DHT22;10326;53.660;10.200;2023-10-13T20:16:58;21.80;93.90
20337;DHT22;10326;53.660;10.200;2023-10-13T20:19:25;21.80;93.90
20337;DHT22;10326;53.660;10.200;2023-10-13T20:21:52;21.80;93.90
20337;DHT22;10326;53.660;10.200;2023-10-13T20:24:20;21.80;93.80
20337;DHT22;10326;53.660;10.200;2023-10-13T20:26:49;21.80;93.70
20337;DHT22;10326;53.660;10.200;2023-10-13T20:29:18;21.80;93.70
20337;DHT22;10326;53.660;10.200;2023-10-13T20:31:46;21.80;93.60
20337;DHT22;10326;53.660;10.200;2023-10-13T20:34:14;21.80;93.50
20337;DHT22;10326;53.660;10.200;2023-10-13T20:36:44;21.80;93.40
20337;DHT22;10326;53.660;10.200;2023-10-13T20:39:11;21.80;93.30
20337;DHT22;10326;53.660;10.200;2023-10-13T20:41:49;21.80;93.30
20337;DHT22;10326;53.660;10.200;2023-10-13T20:44:18;21.80;93.40
20337;DHT22;10326;53.660;10.200;2023-10-13T20:46:45;21.80;93.30
20337;DHT22;10326;53.660;10.200;2023-10-13T20:49:13;21.70;93.30
20337;DHT22;10326;53.660;10.200;2023-10-13T20:51:40;21.60;93.30
20337;DHT22;10326;53.660;10.200;2023-10-13T20:54:09;21.60;93.20
20337;DHT22;10326;53.660;10.200;2023-10-13T20:56:37;21.50;93.30
20337;DHT22;10326;53.660;10.200;2023-10-13T20:59:04;21.50;93.40
20337;DHT22;10326;53.660;10.200;2023-10-13T21:01:34;21.40;93.30
20337;DHT22;10326;53.660;10.200;2023-10-13T21:04:01;21.30;93.30
20337;DHT22;10326;53.660;10.200;2023-10-13T21:06:29;21.30;93.30
20337;DHT22;10326;53.660;10.200;2023-10-13T21:08:57;21.30;93.40
20337;DHT22;10326;53.660;10.200;2023-10-13T21:11:26;21.20;93.30
20337;DHT22;10326;53.660;10.200;2023-10-13T21:13:54;21.20;93.40
20337;DHT22;10326;53.660;10.200;2023-10-13T21:16:21;21.20;93.40
20337;DHT22;10326;53.660;10.200;2023-10-13T21:18:50;21.20;93.50
20337;DHT22;10326;53.660;10.200;2023-10-13T21:21:18;21.10;93.50
20337;DHT22;10326;53.660;10.200;2023-10-13T21:23:46;21.10;93.50
20337;DHT22;10326;53.660;10.200;2023-10-13T21:26:17;21.10;93.60
20337;DHT22;10326;53.660;10.200;2023-10-13T21:28:46;21.00;93.60
20337;DHT22;10326;53.660;10.200;2023-10-13T21:31:14;21.00;93.60
20337;DHT22;10326;53.660;10.200;2023-10-13T21:33:43;21.00;93.70
20337;DHT22;10326;53.660;10.200;2023-10-13T21:36:12;21.00;93.70
20337;DHT22;10326;53.660;10.200;2023-10-13T21:38:41;20.90;93.60
20337;DHT22;10326;53.660;10.200;2023-10-13T21:41:11;20.90;93.70
20337;DHT22;10326;53.660;10.200;2023-10-13T21:43:40;20.90;93.70
20337;DHT22;10326;53.660;10.200;2023-10-13T21:46:08;20.80;93.70
20337;DHT22;10326;53.660;10.200;2023-10-13T21:48:39;20.80;93.70
20337;DHT22;10326;53.660;10.200;2023-10-13T21:51:07;20.80;93.70
20337;DHT22;10326;53.660;10.200;2023-10-13T21:53:37;20.80;93.70
20337;DHT22;10326;53.660;10.200;2023-10-13T21:56:05;20.80;93.70
20337;DHT22;10326;53.660;10.200;2023-10-13T21:58:38;20.80;93.70
20337;DHT22;10326;53.660;10.200;2023-10-13T22:01:07;20.80;93.70
20337;DHT22;10326;53.660;10.200;2023-10-13T22:03:55;20.70;93.70
20337;DHT22;10326;53.660;10.200;2023-10-13T22:06:34;20.70;93.70
20337;DHT22;10326;53.660;10.200;2023-10-13T22:09:04;20.70;93.60
20337;DHT22;10326;53.660;10.200;2023-10-13T22:11:35;20.70;93.60
20337;DHT22;10326;53.660;10.200;2023-10-13T22:14:04;20.70;93.60
20337;DHT22;10326;53.660;10.200;2023-10-13T22:16:31;20.70;93.70
20337;DHT22;10326;53.660;10.200;2023-10-13T22:19:00;20.70;93.80
20337;DHT22;10326;53.660;10.200;2023-10-13T22:21:29;20.70;93.80
20337;DHT22;10326;53.660;10.200;2023-10-13T22:23:56;20.60;93.80
20337;DHT22;10326;53.660;10.200;2023-10-13T22:26:27;20.60;94.10
20337;DHT22;10326;53.660;10.200;2023-10-13T22:28:55;20.60;94.00
20337;DHT22;10326;53.660;10.200;2023-10-13T22:31:23;20.50;94.00
20337;DHT22;10326;53.660;10.200;2023-10-13T22:33:51;20.50;94.10
20337;DHT22;10326;53.660;10.200;2023-10-13T22:36:19;20.50;94.10
20337;DHT22;10326;53.660;10.200;2023-10-13T22:38:51;20.40;94.20
20337;DHT22;10326;53.660;10.200;2023-10-13T22:41:21;20.40;94.30
20337;DHT22;10326;53.660;10.200;2023-10-13T22:43:49;20.40;94.30
20337;DHT22;10326;53.660;10.200;2023-10-13T22:46:17;20.40;94.40
20337;DHT22;10326;53.660;10.200;2023-10-13T22:48:45;20.40;94.40
20337;DHT22;10326;53.660;10.200;2023-10-13T22:51:12;20.40;94.50
20337;DHT22;10326;53.660;10.200;2023-10-13T22:53:40;20.40;94.50
20337;DHT22;10326;53.660;10.200;2023-10-13T22:56:08;20.40;94.50
20337;DHT22;10326;53.660;10.200;2023-10-13T22:58:35;20.40;94.50
20337;DHT22;10326;53.660;10.200;2023-10-13T23:01:05;20.40;94.60
20337;DHT22;10326;53.660;10.200;2023-10-13T23:03:33;20.40;94.60
20337;DHT22;10326;53.660;10.200;2023-10-13T23:06:08;20.40;94.60
20337;DHT22;10326;53.660;10.200;2023-10-13T23:08:37;20.40;94.60
20337;DHT22;10326;53.660;10.200;2023-10-13T23:11:06;20.40;94.60
20337;DHT22;10326;53.660;10.200;2023-10-13T23:13:41;20.50;94.60
20337;DHT22;10326;53.660;10.200;2023-10-13T23:16:10;20.40;94.60
20337;DHT22;10326;53.660;10.200;2023-10-13T23:18:38;20.50;94.70
20337;DHT22;10326;53.660;10.200;2023-10-13T23:21:05;20.50;94.70
20337;DHT22;10326;53.660;10.200;2023-10-13T23:23:36;20.50;94.80
20337;DHT22;10326;53.660;10.200;2023-10-13T23:26:04;20.50;94.80
20337;DHT22;10326;53.660;10.200;2023-10-13T23:28:31;20.60;94.80
20337;DHT22;10326;53.660;10.200;2023-10-13T23:31:00;20.50;94.90
20337;DHT22;10326;53.660;10.200;2023-10-13T23:33:29;20.50;94.90
20337;DHT22;10326;53.660;10.200;2023-10-13T23:35:58;20.50;94.90
20337;DHT22;10326;53.660;10.200;2023-10-13T23:38:28;20.50;95.00
20337;DHT22;10326;53.660;10.200;2023-10-13T23:41:00;20.50;95.10
20337;DHT22;10326;53.660;10.200;2023-10-13T23:43:31;20.40;95.10
20337;DHT22;10326;53.660;10.200;2023-10-13T23:46:08;20.40;95.10
20337;DHT22;10326;53.660;10.200;2023-10-13T23:48:38;20.40;95.20
20337;DHT22;10326;53.660;10.200;2023-10-13T23:51:09;20.30;95.20
20337;DHT22;10326;53.660;10.200;2023-10-13T23:53:38;20.30;95.30
20337;DHT22;10326;53.660;10.200;2023-10-13T23:56:11;20.30;95.30
20337;DHT22;10326;53.660;10.200;2023-10-13T23:58:41;20.20;95.30
